Time;durP1;ratioP1;P1;durP2;ratioP2;P2;SDS_P1;SDS_P2;PMS_P1;PMS_P2;Temp;Humidity;BMP_temperature;BMP_pressure;BME280_temperature;BME280_humidity;BME280_pressure;Samples;Min_cycle;Max_cycle;Signal;HPM_P1;HPM_P2
2022/05/27 00:01:35;;;;;;;3.50;2.20;;;;;;;14.57;58.97;99391.30;447540;1270;142399;-56
2022/05/27 00:11:39;;;;;;;2.10;1.90;;;;;;;14.48;59.05;99385.71;447456;1270;141591;-56
2022/05/27 00:21:42;;;;;;;4.40;2.20;;;;;;;14.34;59.56;99379.60;447536;1270;145993;-56
2022/05/27 00:31:45;;;;;;;5.30;3.20;;;;;;;14.30;59.91;99359.55;446774;1270;143380;-57
2022/05/27 00:41:48;;;;;;;4.10;2.80;;;;;;;14.20;60.32;99343.80;447440;1270;141515;-55
2022/05/27 00:51:54;;;;;;;6.80;3.70;;;;;;;14.17;60.64;99333.72;446846;1268;142540;-55
2022/05/27 01:01:58;;;;;;;4.80;3.50;;;;;;;14.10;61.04;99321.02;446734;1270;143426;-56
2022/05/27 01:12:17;;;;;;;3.50;2.60;;;;;;;13.97;61.45;99309.29;447534;1268;142366;-58
2022/05/27 01:22:38;;;;;;;3.20;2.50;;;;;;;13.91;61.75;99288.33;440268;1270;141887;-56
2022/05/27 01:32:48;;;;;;;3.10;2.30;;;;;;;13.86;62.10;99275.67;447508;1270;142118;-57
2022/05/27 01:43:00;;;;;;;3.10;2.80;;;;;;;13.83;62.32;99276.30;447477;1270;143039;-57
2022/05/27 01:53:10;;;;;;;2.80;2.50;;;;;;;13.85;62.36;99275.77;446634;1270;141419;-57
2022/05/27 02:03:19;;;;;;;2.90;2.20;;;;;;;13.80;62.55;99273.73;444310;1271;141653;-57
2022/05/27 02:13:30;;;;;;;3.20;2.40;;;;;;;13.76;62.93;99263.33;447332;1270;142709;-57
2022/05/27 02:23:39;;;;;;;2.20;2.00;;;;;;;13.84;62.88;99255.14;446697;1270;143734;-56
2022/05/27 02:44:20;;;;;;;3.70;3.00;;;;;;;13.85;62.93;99234.05;446874;1270;142658;-57
2022/05/27 02:54:29;;;;;;;2.40;2.20;;;;;;;13.87;62.99;99218.61;447594;1269;142667;-57
2022/05/27 03:04:32;;;;;;;2.40;2.00;;;;;;;13.91;63.05;99200.01;447551;1270;142096;-57
2022/05/27 03:15:08;;;;;;;5.10;2.70;;;;;;;13.89;63.14;99185.91;446656;1271;142181;-60
2022/05/27 03:25:19;;;;;;;7.50;2.80;;;;;;;13.92;63.31;99167.32;447547;1270;141962;-57
2022/05/27 03:35:30;;;;;;;3.80;3.00;;;;;;;14.03;63.15;99153.55;446614;1270;142496;-56
2022/05/27 03:45:48;;;;;;;3.30;2.60;;;;;;;14.14;63.05;99148.98;447428;1271;144716;-56
2022/05/27 03:55:51;;;;;;;3.50;2.80;;;;;;;14.30;62.76;99138.04;436320;1268;141564;-55
2022/05/27 04:05:54;;;;;;;2.90;2.30;;;;;;;14.40;62.67;99137.75;429882;1271;141714;-54
2022/05/27 04:15:57;;;;;;;2.50;2.30;;;;;;;14.48;62.62;99139.70;443092;1271;144990;-55
2022/05/27 04:26:00;;;;;;;3.20;2.80;;;;;;;14.55;62.94;99125.54;435063;1271;142374;-57
2022/05/27 04:36:04;;;;;;;2.50;2.30;;;;;;;14.54;63.59;99127.70;445448;1271;141848;-55
2022/05/27 04:46:07;;;;;;;2.90;2.10;;;;;;;14.56;64.05;99117.34;447457;1270;141638;-57
2022/05/27 04:56:11;;;;;;;2.80;1.90;;;;;;;14.58;64.56;99112.20;445730;1270;141356;-56
2022/05/27 05:06:14;;;;;;;3.50;2.20;;;;;;;14.57;65.32;99113.52;439191;1269;142128;-56
2022/05/27 05:16:17;;;;;;;2.90;1.80;;;;;;;14.45;65.88;99118.11;436909;1270;142293;-56
2022/05/27 05:26:20;;;;;;;7.20;2.80;;;;;;;14.40;66.27;99117.33;440994;1271;141914;-56
2022/05/27 05:36:23;;;;;;;4.50;2.90;;;;;;;14.39;66.74;99114.06;443255;1268;147128;-56
2022/05/27 05:46:27;;;;;;;3.80;2.50;;;;;;;14.32;67.77;99106.02;447617;1268;142136;-57
2022/05/27 05:56:33;;;;;;;3.20;2.50;;;;;;;14.49;68.13;99094.70;446001;1269;142057;-56
2022/05/27 06:06:37;;;;;;;3.30;2.40;;;;;;;14.64;68.15;99079.44;447602;1270;142888;-57
2022/05/27 06:16:40;;;;;;;2.90;2.00;;;;;;;14.91;68.08;99064.23;447004;1270;156141;-56
2022/05/27 06:26:43;;;;;;;3.80;2.30;;;;;;;15.37;67.73;99053.22;445123;1270;151871;-56
2022/05/27 06:36:47;;;;;;;3.50;2.30;;;;;;;15.46;66.88;99064.86;445785;1270;141952;-57
2022/05/27 06:46:51;;;;;;;4.60;2.20;;;;;;;15.15;67.17;99058.52;444333;1270;143197;-57
2022/05/27 06:56:54;;;;;;;5.00;2.30;;;;;;;15.24;67.71;99048.87;445017;1271;186000;-58
2022/05/27 07:06:58;;;;;;;2.40;2.20;;;;;;;15.47;67.57;99040.77;435727;1270;143962;-56
2022/05/27 07:17:02;;;;;;;2.40;2.20;;;;;;;15.57;67.39;99033.04;441814;1270;185226;-57
2022/05/27 07:27:13;;;;;;;3.70;2.20;;;;;;;15.56;67.29;99032.56;447747;1270;141746;-57
2022/05/27 07:37:16;;;;;;;3.90;1.90;;;;;;;15.40;67.21;99031.23;447194;1269;142675;-54
2022/05/27 07:47:20;;;;;;;3.90;2.40;;;;;;;15.19;67.82;99029.79;447085;1270;142432;-60
2022/05/27 07:57:28;;;;;;;6.30;2.40;;;;;;;15.54;67.93;99028.16;439437;1270;142613;-72
2022/05/27 08:07:32;;;;;;;2.30;2.10;;;;;;;15.64;67.87;99034.69;438905;1270;141680;-75
2022/05/27 08:17:36;;;;;;;3.60;2.90;;;;;;;15.31;69.15;99043.48;434655;1270;142027;-68
2022/05/27 08:27:40;;;;;;;4.00;2.40;;;;;;;15.34;69.83;99047.33;440908;1270;253736;-71
2022/05/27 08:38:02;;;;;;;4.20;3.40;;;;;;;15.22;70.04;99057.17;438326;1270;143120;-69
2022/05/27 08:48:08;;;;;;;2.10;2.00;;;;;;;15.24;70.62;99070.39;441133;1270;141533;-72
2022/05/27 09:08:55;;;;;;;5.30;3.10;;;;;;;15.53;70.26;99071.48;435100;1270;142940;-70
2022/05/27 09:19:05;;;;;;;3.10;2.60;;;;;;;15.29;70.07;99079.98;437359;1270;141574;-74
2022/05/27 09:29:24;;;;;;;3.50;3.20;;;;;;;14.92;70.41;99074.70;435618;1270;141040;-75
2022/05/27 09:39:31;;;;;;;3.70;3.10;;;;;;;15.12;70.86;99067.23;447781;1269;144723;-71
2022/05/27 09:49:34;;;;;;;3.60;3.30;;;;;;;15.72;70.73;99068.44;441533;1271;142176;-61
2022/05/27 09:59:40;;;;;;;4.80;2.80;;;;;;;16.39;69.84;99076.83;447578;1271;142908;-66
2022/05/27 10:09:43;;;;;;;3.10;1.80;;;;;;;16.21;66.87;99078.23;432496;1270;142326;-64
2022/05/27 10:19:48;;;;;;;2.50;2.20;;;;;;;15.63;66.45;99089.05;439125;1270;142548;-61
2022/05/27 10:29:53;;;;;;;4.10;2.40;;;;;;;15.12;67.37;99100.44;447834;1268;142099;-60
2022/05/27 10:40:12;;;;;;;2.20;1.30;;;;;;;14.06;68.19;99110.86;447706;1269;142138;-57
2022/05/27 10:50:24;;;;;;;2.70;1.50;;;;;;;14.03;68.71;99088.96;446937;1270;142495;-56
2022/05/27 11:11:12;;;;;;;2.10;1.10;;;;;;;13.54;67.82;99062.69;436777;1269;142239;-54
2022/05/27 11:21:37;;;;;;;1.00;0.90;;;;;;;13.22;68.03;99063.57;447586;1269;142638;-55
2022/05/27 11:31:54;;;;;;;1.70;1.00;;;;;;;13.08;68.20;99002.50;436194;1270;141496;-55
2022/05/27 11:42:12;;;;;;;0.80;0.80;;;;;;;13.30;68.16;99026.73;433082;1271;143018;-56
2022/05/27 11:52:29;;;;;;;1.90;1.50;;;;;;;13.47;67.79;99021.63;447098;1270;142348;-54
2022/05/27 12:02:38;;;;;;;1.60;0.80;;;;;;;13.22;67.89;99022.41;446960;1270;142602;-56
2022/05/27 12:12:47;;;;;;;1.30;0.70;;;;;;;13.10;68.19;99020.84;442631;1271;143185;-57
2022/05/27 12:22:54;;;;;;;1.70;0.70;;;;;;;13.07;68.35;99011.45;438491;1270;142178;-57
2022/05/27 12:32:59;;;;;;;1.80;1.20;;;;;;;13.21;68.24;99000.92;433129;1271;141847;-57
2022/05/27 12:43:12;;;;;;;2.00;1.40;;;;;;;13.64;68.13;98996.08;431866;1270;146041;-59
2022/05/27 12:53:19;;;;;;;0.70;0.70;;;;;;;14.44;67.29;98978.92;431597;1271;141949;-59
2022/05/27 13:03:48;;;;;;;6.30;1.70;;;;;;;15.13;65.84;98962.98;431057;1271;146136;-60
2022/05/27 13:13:53;;;;;;;1.30;0.80;;;;;;;15.56;64.27;98954.21;432600;1271;142397;-59
2022/05/27 13:24:32;;;;;;;1.00;0.70;;;;;;;16.03;63.19;98944.55;439310;1270;142457;-59
2022/05/27 13:34:42;;;;;;;1.80;1.10;;;;;;;15.91;62.85;98942.89;444281;1271;142729;-58
2022/05/27 13:44:45;;;;;;;1.40;1.20;;;;;;;15.88;62.50;98925.23;431046;1271;147159;-61
2022/05/27 13:55:13;;;;;;;1.60;1.00;;;;;;;16.03;62.47;98937.66;431336;1271;142808;-58
2022/05/27 14:05:21;;;;;;;3.90;1.40;;;;;;;16.12;62.22;98941.37;437789;1270;145556;-57
2022/05/27 14:15:26;;;;;;;;;;;;;;;16.00;61.57;98925.52;430604;1270;145084;-58
2022/05/27 14:25:32;;;;;;;1.30;1.10;;;;;;;15.84;61.17;98926.95;430900;1270;133347;-59
2022/05/27 14:35:36;;;;;;;4.40;1.80;;;;;;;15.40;61.88;98892.61;430335;1271;143313;-60
2022/05/27 14:45:50;;;;;;;3.90;1.60;;;;;;;16.00;61.65;98883.34;430758;1271;141992;-55
2022/05/27 14:55:59;;;;;;;2.70;1.30;;;;;;;15.99;60.53;98909.06;430143;1270;141791;-54
2022/05/27 15:06:26;;;;;;;2.60;1.70;;;;;;;15.12;61.51;98922.36;431315;1270;143099;-57
2022/05/27 15:16:34;;;;;;;4.30;1.60;;;;;;;15.22;62.77;98916.90;430948;1270;142827;-52
2022/05/27 15:37:15;;;;;;;1.70;1.30;;;;;;;15.50;61.48;98876.46;431389;1271;141813;-53
2022/05/27 15:47:18;;;;;;;2.10;1.30;;;;;;;15.27;61.45;98868.05;430525;1270;142645;-53
2022/05/27 15:57:21;;;;;;;2.70;1.80;;;;;;;15.29;61.05;98858.92;431245;1270;201019;-52
2022/05/27 16:07:25;;;;;;;2.00;1.40;;;;;;;15.16;61.32;98862.61;431367;1271;142266;-53
2022/05/27 16:27:49;;;;;;;9.10;3.30;;;;;;;15.17;61.13;98859.67;431456;1270;142399;-50
2022/05/27 16:37:53;;;;;;;2.40;1.30;;;;;;;15.10;61.16;98865.82;431142;1270;143062;-52
2022/05/27 16:47:56;;;;;;;2.70;1.80;;;;;;;14.76;61.43;98868.06;431503;1270;142621;-52
2022/05/27 16:58:00;;;;;;;4.50;1.90;;;;;;;14.47;62.28;98863.85;434171;1270;141681;-54
2022/05/27 17:08:03;;;;;;;4.40;2.30;;;;;;;14.52;62.68;98865.45;436553;1270;142237;-55
2022/05/27 17:18:07;;;;;;;4.70;2.10;;;;;;;14.61;62.50;98864.66;446589;1270;141495;-54
2022/05/27 17:28:10;;;;;;;7.50;1.90;;;;;;;14.62;62.35;98861.90;439688;1270;143616;-53
2022/05/27 17:38:13;;;;;;;5.60;1.90;;;;;;;14.73;61.88;98880.67;442058;1271;141794;-49
2022/05/27 17:58:45;;;;;;;5.50;2.50;;;;;;;14.27;62.09;98897.16;436990;1270;142113;-54
2022/05/27 18:08:49;;;;;;;3.40;1.60;;;;;;;14.06;62.67;98903.95;433197;1270;142925;-52
2022/05/27 18:18:52;;;;;;;3.50;1.70;;;;;;;13.89;62.22;98907.50;432801;1271;141295;-52
2022/05/27 18:28:55;;;;;;;5.70;1.60;;;;;;;13.74;59.09;98923.60;437471;1271;142038;-53
2022/05/27 18:38:59;;;;;;;4.40;1.60;;;;;;;13.56;56.05;98958.22;437465;1270;140764;-55
2022/05/27 18:49:02;;;;;;;4.10;1.20;;;;;;;13.25;55.56;98976.16;435045;1270;141211;-51
2022/05/27 18:59:06;;;;;;;4.70;2.10;;;;;;;12.92;55.69;98996.80;441235;1271;143366;-51
2022/05/27 19:09:10;;;;;;;4.40;1.60;;;;;;;12.62;55.94;99006.84;440584;1270;141632;-52
2022/05/27 19:29:35;;;;;;;8.60;1.80;;;;;;;12.19;55.54;99022.52;433245;1270;140449;-51
2022/05/27 19:39:38;;;;;;;4.60;1.80;;;;;;;11.79;55.43;99027.05;447581;1270;140836;-52
2022/05/27 19:49:41;;;;;;;7.00;1.80;;;;;;;11.42;55.28;99031.08;435329;1270;143024;-52
2022/05/27 19:59:44;;;;;;;3.50;1.10;;;;;;;11.09;55.02;99024.98;447467;1271;142802;-53
2022/05/27 20:09:47;;;;;;;2.00;0.80;;;;;;;10.89;54.71;99031.55;447509;1271;141261;-52
2022/05/27 20:19:50;;;;;;;19.70;2.10;;;;;;;10.58;54.77;99043.24;446701;1269;141486;-54
2022/05/27 20:29:53;;;;;;;4.50;1.70;;;;;;;10.19;55.31;99043.39;444295;1271;330905;-54
2022/05/27 20:39:56;;;;;;;5.60;1.50;;;;;;;9.80;56.54;99047.65;432410;1270;141609;-48
2022/05/27 20:49:59;;;;;;;2.70;1.80;;;;;;;9.30;57.26;99050.16;439576;1270;161945;-51
2022/05/27 21:00:03;;;;;;;3.20;1.40;;;;;;;8.94;57.98;99049.52;432663;1271;142638;-53
2022/05/27 21:10:07;;;;;;;6.70;1.80;;;;;;;8.76;58.88;99054.37;443486;1270;142833;-56
2022/05/27 21:20:12;;;;;;;4.50;1.60;;;;;;;8.71;59.41;99049.30;434720;1270;141511;-51
2022/05/27 21:30:15;;;;;;;4.90;1.20;;;;;;;8.64;59.78;99061.10;437989;1269;141878;-50
2022/05/27 21:40:18;;;;;;;1.10;0.90;;;;;;;8.53;60.25;99061.25;433329;1271;140740;-53
2022/05/27 21:50:22;;;;;;;4.50;1.00;;;;;;;8.30;60.68;99055.32;433243;1270;141312;-52
2022/05/27 22:00:26;;;;;;;4.50;1.20;;;;;;;8.14;61.25;99049.52;433129;1270;142043;-51
2022/05/27 22:20:51;;;;;;;2.00;0.90;;;;;;;7.76;62.36;99039.31;432204;1270;141447;-54
2022/05/27 22:30:54;;;;;;;2.20;1.50;;;;;;;7.54;62.93;99033.30;431299;1270;140890;-53
2022/05/27 22:40:57;;;;;;;3.90;0.70;;;;;;;7.41;63.29;99038.80;440404;1269;140826;-50
2022/05/27 22:51:00;;;;;;;6.80;1.10;;;;;;;7.25;63.69;99038.84;431147;1270;141181;-49
2022/05/27 23:01:04;;;;;;;5.50;1.70;;;;;;;7.11;64.20;99045.91;430556;1271;143209;-49
2022/05/27 23:11:07;;;;;;;2.70;1.00;;;;;;;7.03;64.44;99045.02;430096;1270;142014;-54
2022/05/27 23:21:13;;;;;;;3.90;1.00;;;;;;;6.90;64.99;99037.23;430287;1271;141071;-51
2022/05/27 23:31:19;;;;;;;0.90;0.70;;;;;;;6.92;65.37;99029.09;431327;1270;142466;-50
2022/05/27 23:41:22;;;;;;;3.10;0.70;;;;;;;6.80;65.74;99018.15;430096;1270;141887;-51
2022/05/27 23:51:26;;;;;;;2.40;1.10;;;;;;;6.75;66.33;99003.27;430681;1270;142288;-49
